Terminal Aerodrome Forecast
Issued by NWS

Home | Current Version | Previous Version | Text Only | Print | Product List | Glossary On
Versions: 1 2 3 4 5 6 7 8 9 10 11 12 13 14 15 16 17 18 19 20 21 22 23 24
000
FTUS42 KMFL 221745
TAFFXE
TAF
KFXE 221745Z 2218/2318 12012KT P6SM SCT035 SCT050 SCT250
     FM230000 13006KT P6SM FEW050 SCT250
     FM231200 17011KT P6SM SCT025 SCT040 BKN250=

USA.gov is the U.S. government's official web portal to all federal, state and local government web resources and services.